Pronóstico
Mapa Interactivo
Aviación
Climatología
Hidrometeorología
Agrometeorología
Estaciones Automáticas
Transparencia
OMM WMO
Portada
Institución
Noticias
Imágenes
Tsunami
Historial
Boletines y Alertas
Contactos
Buscar Contenidos
Informe del Tiempo

VUELOS DE BAJO NIVEL DESDE SUPERFICIE HASTA 24,000 PIES.

 
VALIDO DESDE 231200Z...…………………….…………………HASTA 240000Z

 

SANTO DOMINGO FIR...PORT-AU-PRINCE FIR HISPANIOLA...SCT015 SCT070. ISOL SHRA. ISOL TSRA AFT 18Z. OTLK...VFR TSRA BECM 01Z VFR.WTRS...SCT025 SCT060. LYRS OCNL BKN TOP 120. WDLY SCT SHRA/ISOL TSRA. WND ELY 20-25KT S OF 16N. OTLK...VFR SHRA WND.

.

 

 

5,000 FT.

10,000 FT.

18,000 FT.

24,000 FT.

MDSD

1110KT+17ºC

0905KT+08ºC

3620KT-05ºC

3525KT-17ºC

MTPP

1110KT+17ºC

0905KT+08ºC

3520KT-05ºC

3425KT-17ºC

TJSJ

0910KT+16ºC

0605KT+07ºC

3315KT-08ºC

3425KT-19ºC

 

 

 

 

 

 

TAF MDPP 231000Z 2312/2412 00000KT 9999 FEW018 BECMG 2302/2304 08010KT=

TAF MDST 231000Z 2312/2412 00000KT 9999 SCT016 PROB30 2312/2314 4000 BR BKN015 BECMG 2316/2318 13010KT=

TAF MDPC 231000Z 2312/2412 09010KT 9999 FEW023 PROB30 2322/2302 8000 -SHRA BKN018=
TAF MDBH 231000Z 2312/2412 13016KT 9999 FEW016CB SCT018 SCT300=

TAF MDJB 231000Z 2312/2412 00000KT 9999 SCT020 BECMG 2314/2316 09010KT FEW020CB BKN022 SCT300=

TAF MDSD 231000Z 2312/2412 06004KT 9999 FEW017 PROB30 2312/2318 8000 –RA SCT014 BECMG 2316/2318 12012KT FEW020CB SCT022 SCT300=

TAF MDLR 231000Z 2312/2412 00000KT 9999 SCT018 BECMG 2314/2316 06008KT PROB30 2318/2323 7000 –RA FEW017CB SCT018 =

TAF MDCY 231000Z 2312/2412 00000KT 9999 FEW018 PROB30 2312/2316 7000 -RA SCT016 BECMG 2316/2318 09010KT SCT020=

 

KMIA 230859Z 2309/2406 12009KT P6SM VCSH SCT025 BKN250 FM231500 14015G22KT P6SM VCSH SCT025 SCT050 BKN250 FM232100 15012KT P6SM SCT025 BKN050 OVC200 PROB30 2321/2403 4SM SHRA BKN025

 

KJFK 230833Z 2309/2412 05004KT P6SM SCT010 BKN025 TEMPO 2309/2313 4SM BR FM231400 14008KT P6SM SCT010 BKN040 FM231900 15013KT P6SM SCT010 BKN035 FM240000 16014KT 6SM -DZ BR SCT008 BKN025 FM240700 16014G20KT 5SM SHRA BR SCT008 BKN015

 

TJSJ 230520Z 2306/2406 11005KT P6SM SCT040 FM230900 VRB04KT P6SM VCSH SCT030 FM231400 08012G18KT P6SM SCT030 FM232300 10006KT P6SM SCT030

 

MUHA 230500Z 2306/2406 12005KT 9000 SCT020TEMPO 2307/2312 5000 BR BECMG 2313/2315 16010KT 
TEMPO 2322/2402 5000 SHRA FEW018CB BKN020

 

TAF MUGM 2307/2407 33008KT 9999 FEW020 BKN050 QNH2990INS BECMG 2315/2317 13012KT 9999 FEW020 SCT050 QNH2993INS BECMG 2319/2321 11008KT 9999 VCSH SCT020 BKN050 QNH2992INS T25/2311Z T32/2318Z FN00178

 

TAF TNCC 230948Z 2312/2412 11017KT 9999 SCT020 PROB30 TEMPO 2312/2315 BKN015

 

 

PREPARADO POR: HATY ARISMENDY MOTA ACOSTA. 23 DE OCTUBRE DEL 2017-